createdAt,value
2024-01-16T00:01:35.596Z,5.63
2024-01-16T00:04:03.720Z,3.63
2024-01-16T00:06:31.790Z,5.03
2024-01-16T00:08:59.831Z,6.73
2024-01-16T00:11:27.870Z,4.33
2024-01-16T00:13:55.945Z,3.20
2024-01-16T00:16:23.951Z,4.10
2024-01-16T00:18:52.099Z,6.03
2024-01-16T00:21:20.137Z,5.50
2024-01-16T00:23:48.188Z,6.33
2024-01-16T00:26:23.154Z,3.80
2024-01-16T00:28:51.359Z,5.80
2024-01-16T00:31:19.400Z,4.13
2024-01-16T00:33:47.533Z,7.30
2024-01-16T00:36:16.102Z,3.80
2024-01-16T00:38:44.319Z,5.70
2024-01-16T00:41:12.495Z,8.30
2024-01-16T00:43:40.550Z,6.13
2024-01-16T00:46:08.631Z,6.40
2024-01-16T00:48:36.728Z,8.27
2024-01-16T00:51:05.792Z,6.43
2024-01-16T00:53:33.950Z,4.97
2024-01-16T00:56:01.997Z,5.70
2024-01-16T00:58:30.015Z,6.10
2024-01-16T01:00:58.115Z,4.60
2024-01-16T01:03:26.942Z,4.73
2024-01-16T01:05:55.211Z,7.13
2024-01-16T01:08:23.290Z,3.27
2024-01-16T01:10:51.449Z,3.93
2024-01-16T01:13:19.775Z,7.17
2024-01-16T01:15:46.862Z,7.87
2024-01-16T01:18:15.163Z,4.23
2024-01-16T01:20:43.397Z,3.13
2024-01-16T01:23:12.016Z,3.37
2024-01-16T01:25:40.623Z,5.63
2024-01-16T01:28:08.891Z,4.20
2024-01-16T01:30:37.546Z,3.87
2024-01-16T01:33:05.824Z,4.67
2024-01-16T01:35:34.001Z,5.00
2024-01-16T01:38:02.164Z,3.77
2024-01-16T01:40:30.193Z,3.97
2024-01-16T01:42:58.237Z,3.50
2024-01-16T01:45:26.245Z,2.67
2024-01-16T01:47:54.361Z,2.77
2024-01-16T01:50:22.485Z,1.67
2024-01-16T01:52:51.351Z,5.57
2024-01-16T01:55:19.436Z,5.50
2024-01-16T01:57:47.597Z,3.70
2024-01-16T02:00:18.868Z,2.90
2024-01-16T02:02:47.030Z,2.23
2024-01-16T02:05:15.178Z,5.27
2024-01-16T02:07:43.260Z,3.07
2024-01-16T02:10:11.256Z,4.57
2024-01-16T02:12:39.267Z,3.93
2024-01-16T02:15:07.400Z,2.20
2024-01-16T02:17:35.482Z,2.30
2024-01-16T02:20:03.771Z,1.87
2024-01-16T02:22:34.368Z,3.10
2024-01-16T02:25:02.445Z,3.87
2024-01-16T02:27:30.469Z,6.70
2024-01-16T02:29:58.554Z,4.73
2024-01-16T02:32:26.684Z,2.97
2024-01-16T02:34:54.773Z,4.77
2024-01-16T02:37:23.471Z,2.13
2024-01-16T02:39:51.485Z,2.90
2024-01-16T02:42:19.521Z,3.60
2024-01-16T02:44:47.791Z,3.33
2024-01-16T02:47:16.167Z,1.80
2024-01-16T02:49:44.285Z,2.60
2024-01-16T02:52:12.338Z,3.33
2024-01-16T02:54:40.542Z,6.07
2024-01-16T02:57:08.645Z,2.40
2024-01-16T02:59:36.780Z,4.93
2024-01-16T03:02:05.178Z,2.70
2024-01-16T03:04:33.280Z,2.73
2024-01-16T03:07:01.379Z,4.63
2024-01-16T03:09:29.571Z,3.63
2024-01-16T03:11:58.894Z,2.20
2024-01-16T03:14:27.020Z,2.87
2024-01-16T03:16:55.082Z,3.97
2024-01-16T03:19:23.145Z,2.93
2024-01-16T03:21:51.212Z,2.03
2024-01-16T03:24:19.236Z,4.23
2024-01-16T03:26:47.360Z,2.43
2024-01-16T03:29:15.500Z,4.20
2024-01-16T03:31:43.854Z,3.27
2024-01-16T03:34:12.069Z,2.13
2024-01-16T03:36:40.229Z,3.83
2024-01-16T03:39:10.032Z,3.03
2024-01-16T03:41:38.154Z,3.83
2024-01-16T03:44:06.278Z,5.10
2024-01-16T03:46:34.352Z,3.90
2024-01-16T03:49:02.566Z,3.77
2024-01-16T03:51:31.382Z,3.13
2024-01-16T03:54:00.229Z,5.33
2024-01-16T03:56:28.289Z,4.23
2024-01-16T03:58:56.329Z,3.40
2024-01-16T04:01:38.218Z,3.40
2024-01-16T04:04:07.607Z,2.13
2024-01-16T04:06:36.143Z,2.83
2024-01-16T04:09:04.910Z,3.23
2024-01-16T04:11:33.040Z,3.37
2024-01-16T04:14:01.159Z,2.93
2024-01-16T04:16:29.225Z,2.90
2024-01-16T04:18:57.311Z,3.77
2024-01-16T04:21:25.470Z,3.20
2024-01-16T04:23:53.538Z,4.80
2024-01-16T04:26:22.616Z,4.30
2024-01-16T04:28:50.827Z,4.13
2024-01-16T04:31:20.528Z,4.50
2024-01-16T04:33:48.642Z,3.40
2024-01-16T04:36:16.730Z,4.47
2024-01-16T04:38:44.800Z,4.43
2024-01-16T04:41:12.924Z,3.77
2024-01-16T04:43:41.135Z,4.53
2024-01-16T04:46:09.186Z,3.33
2024-01-16T04:48:37.477Z,2.93
2024-01-16T04:51:05.653Z,3.30
2024-01-16T04:53:39.554Z,5.33
2024-01-16T04:56:07.932Z,3.23
2024-01-16T04:58:36.007Z,3.37
2024-01-16T05:01:04.125Z,4.00
2024-01-16T05:03:32.229Z,3.33
2024-01-16T05:06:00.701Z,5.23
2024-01-16T05:08:29.103Z,6.00
2024-01-16T05:10:57.259Z,6.20
2024-01-16T05:13:25.302Z,4.43
2024-01-16T05:15:53.363Z,3.10
2024-01-16T05:18:21.818Z,5.07
2024-01-16T05:20:50.063Z,4.77
2024-01-16T05:23:19.126Z,5.80
2024-01-16T05:25:47.242Z,4.13
2024-01-16T05:28:15.299Z,5.47
2024-01-16T05:30:44.556Z,8.23
2024-01-16T05:33:12.818Z,4.33
2024-01-16T05:35:41.138Z,4.23
2024-01-16T05:38:09.307Z,7.50
2024-01-16T05:40:37.396Z,3.83
2024-01-16T05:43:05.658Z,6.70
2024-01-16T05:45:33.695Z,8.90
2024-01-16T05:48:02.059Z,5.03
2024-01-16T05:50:31.435Z,5.70
2024-01-16T05:52:59.535Z,7.53
2024-01-16T05:55:27.556Z,5.97
2024-01-16T05:57:55.620Z,4.83
2024-01-16T06:00:24.409Z,8.13
2024-01-16T06:02:52.547Z,3.33
2024-01-16T06:05:20.776Z,3.83
2024-01-16T06:07:48.981Z,7.37
2024-01-16T06:10:17.111Z,4.17
2024-01-16T06:12:45.175Z,3.40
2024-01-16T06:15:13.344Z,3.53
2024-01-16T06:17:41.602Z,5.70
2024-01-16T06:20:10.145Z,5.00
2024-01-16T06:22:38.213Z,6.27
2024-01-16T06:25:05.502Z,7.47
2024-01-16T06:27:33.699Z,3.20
2024-01-16T06:30:01.985Z,4.53
2024-01-16T06:32:30.705Z,6.80
2024-01-16T06:34:58.831Z,18.10
2024-01-16T06:37:26.936Z,3.90
2024-01-16T06:39:55.003Z,3.17
2024-01-16T06:42:23.130Z,3.93
2024-01-16T06:44:51.368Z,6.97
2024-01-16T06:47:19.493Z,6.87
2024-01-16T06:49:48.199Z,4.43
2024-01-16T06:52:16.275Z,8.77
2024-01-16T06:54:44.639Z,4.87
2024-01-16T06:57:12.702Z,6.97
2024-01-16T06:59:40.840Z,4.03
2024-01-16T07:02:09.425Z,5.80
2024-01-16T07:04:37.524Z,5.53
2024-01-16T07:07:05.711Z,6.73
2024-01-16T07:09:33.748Z,5.13
2024-01-16T07:12:01.932Z,6.87
2024-01-16T07:14:30.045Z,7.17
2024-01-16T07:16:58.217Z,6.77
2024-01-16T07:19:26.327Z,3.50
2024-01-16T07:21:54.378Z,6.33
2024-01-16T07:24:22.465Z,8.97
2024-01-16T07:26:50.657Z,10.67
2024-01-16T07:29:19.838Z,5.53
2024-01-16T07:31:48.687Z,8.40
2024-01-16T07:34:21.231Z,5.87
2024-01-16T07:36:49.367Z,9.13
2024-01-16T07:39:17.507Z,7.60
2024-01-16T07:41:45.670Z,10.27
2024-01-16T07:44:13.867Z,6.93
2024-01-16T07:46:42.341Z,5.80
2024-01-16T07:49:10.832Z,7.00
2024-01-16T07:51:38.998Z,7.90
2024-01-16T07:54:11.268Z,7.80
2024-01-16T07:56:39.851Z,7.63
2024-01-16T07:59:07.988Z,8.67
2024-01-16T08:01:36.117Z,8.63
2024-01-16T08:04:05.108Z,7.90
2024-01-16T08:06:33.549Z,7.63
2024-01-16T08:09:01.748Z,11.10
2024-01-16T08:11:31.382Z,8.43
2024-01-16T08:14:00.027Z,9.90
2024-01-16T08:16:28.100Z,7.87
2024-01-16T08:18:56.306Z,7.60
2024-01-16T08:21:24.448Z,8.33
2024-01-16T08:23:52.822Z,9.43
2024-01-16T08:26:21.068Z,9.63
2024-01-16T08:28:49.454Z,7.37
2024-01-16T08:31:19.520Z,5.43
2024-01-16T08:33:50.719Z,7.97
2024-01-16T08:36:20.775Z,7.63
2024-01-16T08:38:48.994Z,5.50
2024-01-16T08:41:17.160Z,8.50
2024-01-16T08:43:45.361Z,6.23
2024-01-16T08:46:16.219Z,6.30
2024-01-16T08:48:44.447Z,3.87
2024-01-16T08:51:15.135Z,11.60
2024-01-16T08:53:44.654Z,6.37
2024-01-16T08:56:13.611Z,7.17
2024-01-16T08:58:42.027Z,8.00
2024-01-16T09:01:11.376Z,6.43
2024-01-16T09:03:39.524Z,8.30
2024-01-16T09:06:07.722Z,7.90
2024-01-16T09:08:35.916Z,9.47
2024-01-16T09:11:04.069Z,6.13
2024-01-16T09:13:32.341Z,8.23
2024-01-16T09:16:00.393Z,5.77
2024-01-16T09:18:28.710Z,6.77
2024-01-16T09:20:58.095Z,4.93
2024-01-16T09:23:26.267Z,6.10
2024-01-16T09:25:55.155Z,5.93
2024-01-16T09:28:23.278Z,8.73
2024-01-16T09:30:51.465Z,5.70
2024-01-16T09:33:19.742Z,5.57
2024-01-16T09:35:47.943Z,11.43
2024-01-16T09:38:16.267Z,6.60
2024-01-16T09:40:44.423Z,11.80
2024-01-16T09:43:12.724Z,4.73
2024-01-16T09:45:40.922Z,7.90
2024-01-16T09:48:10.370Z,7.23
2024-01-16T09:50:38.915Z,5.87
2024-01-16T09:53:07.098Z,6.03
2024-01-16T09:55:35.206Z,4.40
2024-01-16T09:58:04.636Z,7.50
2024-01-16T10:00:33.184Z,10.63
2024-01-16T10:03:02.723Z,7.53
2024-01-16T10:05:32.618Z,6.90
2024-01-16T10:08:01.154Z,5.30
2024-01-16T10:10:38.552Z,6.27
2024-01-16T10:13:15.330Z,8.53
2024-01-16T10:15:43.448Z,5.93
2024-01-16T10:18:25.951Z,8.10
2024-01-16T10:20:54.797Z,6.20
2024-01-16T10:23:34.047Z,5.43
2024-01-16T10:26:08.813Z,10.53
2024-01-16T10:28:37.586Z,6.03
2024-01-16T10:31:10.867Z,7.80
2024-01-16T10:33:40.444Z,5.87
2024-01-16T10:36:12.520Z,9.37
2024-01-16T10:38:42.026Z,7.17
2024-01-16T10:41:18.163Z,8.03
2024-01-16T10:43:46.792Z,4.80
2024-01-16T10:46:17.328Z,7.60
2024-01-16T10:48:48.214Z,4.67
2024-01-16T10:51:17.284Z,4.77
2024-01-16T10:53:48.241Z,6.77
2024-01-16T10:56:16.749Z,5.90
2024-01-16T10:58:45.499Z,8.43
2024-01-16T11:01:17.717Z,6.47
2024-01-16T11:03:50.785Z,6.20
2024-01-16T11:06:20.512Z,6.43
2024-01-16T11:08:51.237Z,4.57
2024-01-16T11:11:19.644Z,6.40
2024-01-16T11:13:48.790Z,6.53
2024-01-16T11:16:17.167Z,6.20
2024-01-16T11:18:45.401Z,8.57
2024-01-16T11:21:18.048Z,5.57
2024-01-16T11:23:48.311Z,5.90
2024-01-16T11:26:26.319Z,6.07
2024-01-16T11:28:57.417Z,7.33
2024-01-16T11:31:33.067Z,6.47
2024-01-16T11:34:02.034Z,5.23
2024-01-16T11:36:50.038Z,7.33
2024-01-16T11:39:22.245Z,7.60
2024-01-16T11:41:58.087Z,4.43
2024-01-16T11:44:48.952Z,6.77
2024-01-16T11:47:25.347Z,3.87
2024-01-16T11:50:09.614Z,5.00
2024-01-16T11:52:43.407Z,8.90
2024-01-16T11:55:30.537Z,5.80
2024-01-16T11:58:10.639Z,8.70
2024-01-16T12:00:41.295Z,6.23
2024-01-16T12:03:11.231Z,6.50
2024-01-16T12:05:39.719Z,6.60
2024-01-16T12:08:07.887Z,5.80
2024-01-16T12:10:48.891Z,6.53
2024-01-16T12:13:17.057Z,9.40
2024-01-16T12:15:45.301Z,6.60
2024-01-16T12:18:19.817Z,6.93
2024-01-16T12:20:55.156Z,10.53
2024-01-16T12:23:24.291Z,4.73
2024-01-16T12:26:02.098Z,8.97
2024-01-16T12:28:33.770Z,5.60
2024-01-16T12:31:04.177Z,6.80
2024-01-16T12:33:32.920Z,6.67
2024-01-16T12:36:06.631Z,7.80
2024-01-16T12:38:36.311Z,7.23
2024-01-16T12:41:09.404Z,10.03
2024-01-16T12:43:38.086Z,5.93
2024-01-16T12:46:07.602Z,7.37
2024-01-16T12:48:36.030Z,9.50
2024-01-16T12:51:06.305Z,8.10
2024-01-16T12:53:38.105Z,5.93
2024-01-16T12:56:06.600Z,6.57
2024-01-16T12:58:43.060Z,8.97
2024-01-16T13:01:38.438Z,7.63
2024-01-16T13:04:08.858Z,7.83
2024-01-16T13:06:37.942Z,7.47
2024-01-16T13:09:11.346Z,9.50
2024-01-16T13:11:56.504Z,7.33
2024-01-16T13:14:25.399Z,6.93
2024-01-16T13:16:56.732Z,8.47
2024-01-16T13:19:26.208Z,10.90
2024-01-16T13:21:54.988Z,7.40
2024-01-16T13:24:25.055Z,7.97
2024-01-16T13:26:53.890Z,7.93
2024-01-16T13:29:22.121Z,7.63
2024-01-16T13:31:55.774Z,5.93
2024-01-16T13:34:26.990Z,9.73
2024-01-16T13:37:14.626Z,8.43
2024-01-16T13:39:44.556Z,6.93
2024-01-16T13:42:12.624Z,7.07
2024-01-16T13:44:40.834Z,6.37
2024-01-16T13:47:12.221Z,6.50
2024-01-16T13:49:43.385Z,6.17
2024-01-16T13:52:11.805Z,6.67
2024-01-16T13:54:41.098Z,7.03
2024-01-16T13:57:10.761Z,10.17
2024-01-16T13:59:41.688Z,8.80
2024-01-16T14:02:10.698Z,10.10
2024-01-16T14:04:39.518Z,10.33
2024-01-16T14:07:12.516Z,9.03
2024-01-16T14:09:44.490Z,7.97
2024-01-16T14:12:13.853Z,9.07
2024-01-16T14:14:43.576Z,8.30
2024-01-16T14:17:11.996Z,5.90
2024-01-16T14:19:40.264Z,10.43
2024-01-16T14:22:08.469Z,6.67
2024-01-16T14:24:38.669Z,8.33
2024-01-16T14:27:08.059Z,9.40
2024-01-16T14:29:38.058Z,6.67
2024-01-16T14:32:06.997Z,6.50
2024-01-16T14:34:35.360Z,5.53
2024-01-16T14:37:03.825Z,7.17
2024-01-16T14:39:32.320Z,6.83
2024-01-16T14:42:00.876Z,8.63
2024-01-16T14:44:29.306Z,5.47
2024-01-16T14:46:57.584Z,6.20
2024-01-16T14:49:25.883Z,5.60
2024-01-16T14:51:54.045Z,7.37
2024-01-16T14:54:22.145Z,7.63
2024-01-16T14:56:50.512Z,7.33
2024-01-16T14:59:19.177Z,7.67
2024-01-16T15:01:47.567Z,4.90
2024-01-16T15:04:15.918Z,7.63
2024-01-16T15:06:44.252Z,5.80
2024-01-16T15:09:13.893Z,9.00
2024-01-16T15:11:44.075Z,7.07
2024-01-16T15:14:18.003Z,9.47
2024-01-16T15:16:46.954Z,6.87
2024-01-16T15:19:15.490Z,4.57
2024-01-16T15:21:43.912Z,9.60
2024-01-16T15:24:17.259Z,6.27
2024-01-16T15:26:45.587Z,6.60
2024-01-16T15:29:14.096Z,6.43
2024-01-16T15:31:42.197Z,8.77
2024-01-16T15:34:12.069Z,7.03
2024-01-16T15:36:41.869Z,8.17
2024-01-16T15:39:09.980Z,7.37
2024-01-16T15:41:38.123Z,7.73
2024-01-16T15:44:11.525Z,8.70
2024-01-16T15:47:00.244Z,9.77
2024-01-16T15:49:28.810Z,6.83
2024-01-16T15:51:57.732Z,7.30
2024-01-16T15:54:25.958Z,7.10
2024-01-16T15:56:55.175Z,10.60
2024-01-16T15:59:23.344Z,5.57
2024-01-16T16:01:52.130Z,6.37
2024-01-16T16:04:20.374Z,7.13
2024-01-16T16:06:48.744Z,7.50
2024-01-16T16:09:17.808Z,6.77
2024-01-16T16:11:46.520Z,7.30
2024-01-16T16:14:15.576Z,8.70
2024-01-16T16:16:49.209Z,7.13
2024-01-16T16:19:17.612Z,7.30
2024-01-16T16:21:49.877Z,5.60
2024-01-16T16:24:19.177Z,5.47
2024-01-16T16:26:47.620Z,8.53
2024-01-16T16:29:15.996Z,6.90
2024-01-16T16:31:44.418Z,8.63
2024-01-16T16:34:15.734Z,8.57
2024-01-16T16:36:44.933Z,5.50
2024-01-16T16:39:14.095Z,5.60
2024-01-16T16:41:42.787Z,6.90
2024-01-16T16:44:11.702Z,7.73
2024-01-16T16:46:39.904Z,5.37
2024-01-16T16:49:08.037Z,8.03
2024-01-16T16:51:42.715Z,6.70
2024-01-16T16:54:11.253Z,7.97
2024-01-16T16:56:39.463Z,6.47
2024-01-16T16:59:08.659Z,6.03
2024-01-16T17:01:39.383Z,7.87
2024-01-16T17:04:08.053Z,7.77
2024-01-16T17:06:36.403Z,6.10
2024-01-16T17:09:07.634Z,8.37
2024-01-16T17:11:35.873Z,8.50
2024-01-16T17:14:04.886Z,6.43
2024-01-16T17:16:33.055Z,8.47
2024-01-16T17:19:01.320Z,5.83
2024-01-16T17:21:29.490Z,8.43
2024-01-16T17:23:58.128Z,10.73
2024-01-16T17:26:27.645Z,7.63
2024-01-16T17:28:56.743Z,8.53
2024-01-16T17:31:24.900Z,9.73
2024-01-16T17:33:53.730Z,7.30
2024-01-16T17:36:22.249Z,10.73
2024-01-16T17:38:56.690Z,9.73
2024-01-16T17:41:27.534Z,6.07
2024-01-16T17:43:56.056Z,10.00
2024-01-16T17:46:24.339Z,5.90
2024-01-16T17:48:52.672Z,6.10
2024-01-16T17:51:21.452Z,5.67
2024-01-16T17:53:49.654Z,8.67
2024-01-16T17:56:17.821Z,7.30
2024-01-16T17:58:46.035Z,7.67
2024-01-16T18:01:16.704Z,7.07
2024-01-16T18:03:48.641Z,7.77
2024-01-16T18:06:18.511Z,7.60
2024-01-16T18:08:47.909Z,6.57
2024-01-16T18:11:16.207Z,8.10
2024-01-16T18:13:44.832Z,6.23
2024-01-16T18:16:14.819Z,6.57
2024-01-16T18:18:43.149Z,8.63
2024-01-16T18:21:13.322Z,6.10
2024-01-16T18:23:42.630Z,9.07
2024-01-16T18:26:12.039Z,8.07
2024-01-16T18:28:41.043Z,8.33
2024-01-16T18:31:10.264Z,10.47
2024-01-16T18:33:39.658Z,9.40
2024-01-16T18:36:08.221Z,8.00
2024-01-16T18:38:36.376Z,11.83
2024-01-16T18:41:05.601Z,7.83
2024-01-16T18:43:33.739Z,8.67
2024-01-16T18:46:01.865Z,8.87
2024-01-16T18:48:30.392Z,7.93
2024-01-16T18:50:59.497Z,9.73
2024-01-16T18:53:28.715Z,9.20
2024-01-16T18:55:56.849Z,10.30
2024-01-16T18:58:24.955Z,7.57
2024-01-16T19:00:57.566Z,7.93
2024-01-16T19:03:26.050Z,9.67
2024-01-16T19:05:54.876Z,11.63
2024-01-16T19:08:25.085Z,10.13
2024-01-16T19:10:53.604Z,10.43
2024-01-16T19:13:25.330Z,8.80
2024-01-16T19:15:54.004Z,11.70
2024-01-16T19:18:23.804Z,8.93
2024-01-16T19:20:53.403Z,7.57
2024-01-16T19:23:22.068Z,8.67
2024-01-16T19:25:50.362Z,8.00
2024-01-16T19:28:18.483Z,7.00
2024-01-16T19:30:46.768Z,8.37
2024-01-16T19:33:15.153Z,8.23
2024-01-16T19:35:45.740Z,8.80
2024-01-16T19:38:14.412Z,8.53
2024-01-16T19:40:42.469Z,9.73
2024-01-16T19:43:10.536Z,9.07
2024-01-16T19:45:38.608Z,9.97
2024-01-16T19:48:14.087Z,8.33
2024-01-16T19:50:44.289Z,8.10
2024-01-16T19:53:12.874Z,8.13
2024-01-16T19:55:41.498Z,8.67
2024-01-16T19:58:11.989Z,8.57
2024-01-16T20:00:41.440Z,9.90
2024-01-16T20:03:11.984Z,10.60
2024-01-16T20:05:43.455Z,8.80
2024-01-16T20:08:12.233Z,7.60
2024-01-16T20:10:41.215Z,10.83
2024-01-16T20:13:09.460Z,6.80
2024-01-16T20:15:37.643Z,9.20
2024-01-16T20:18:09.763Z,11.67
2024-01-16T20:20:39.733Z,8.20
2024-01-16T20:23:09.221Z,9.83
2024-01-16T20:25:37.464Z,10.10
2024-01-16T20:28:06.487Z,8.13
2024-01-16T20:30:37.025Z,9.60
2024-01-16T20:33:05.513Z,9.90
2024-01-16T20:35:33.945Z,8.13
2024-01-16T20:38:02.219Z,8.03
2024-01-16T20:40:30.355Z,9.00
2024-01-16T20:42:58.507Z,8.37
2024-01-16T20:45:26.917Z,8.03
2024-01-16T20:47:56.017Z,8.60
2024-01-16T20:50:24.445Z,10.67
2024-01-16T20:52:52.636Z,9.43
2024-01-16T20:55:21.159Z,7.93
2024-01-16T20:57:51.399Z,9.80
2024-01-16T21:00:20.075Z,13.23
2024-01-16T21:02:48.207Z,11.67
2024-01-16T21:05:16.542Z,11.30
2024-01-16T21:07:45.307Z,8.13
2024-01-16T21:10:13.646Z,7.33
2024-01-16T21:12:42.594Z,12.47
2024-01-16T21:15:10.977Z,8.63
2024-01-16T21:17:39.589Z,10.20
2024-01-16T21:20:08.769Z,8.83
2024-01-16T21:22:37.386Z,9.80
2024-01-16T21:25:07.015Z,9.97
2024-01-16T21:27:38.133Z,10.63
2024-01-16T21:30:09.362Z,9.13
2024-01-16T21:32:38.125Z,8.93
2024-01-16T21:35:07.654Z,8.97
2024-01-16T21:37:35.841Z,10.43
2024-01-16T21:40:06.298Z,11.10
2024-01-16T21:42:35.756Z,9.10
2024-01-16T21:45:04.230Z,8.60
2024-01-16T21:47:32.677Z,7.83
2024-01-16T21:50:06.323Z,8.83
2024-01-16T21:52:35.747Z,9.37
2024-01-16T21:55:04.109Z,9.40
2024-01-16T21:57:34.187Z,10.40
2024-01-16T22:00:04.325Z,10.53
2024-01-16T22:02:33.281Z,8.10
2024-01-16T22:05:02.295Z,11.30
2024-01-16T22:07:30.476Z,9.03
2024-01-16T22:09:59.746Z,9.30
2024-01-16T22:12:28.109Z,8.93
2024-01-16T22:14:57.215Z,9.17
2024-01-16T22:17:30.028Z,9.60
2024-01-16T22:19:58.668Z,8.27
2024-01-16T22:22:27.081Z,10.63
2024-01-16T22:24:55.184Z,11.27
2024-01-16T22:27:23.758Z,11.63
2024-01-16T22:29:52.027Z,10.40
2024-01-16T22:32:22.165Z,10.10
2024-01-16T22:34:50.360Z,8.67
2024-01-16T22:37:18.964Z,9.80
2024-01-16T22:39:47.060Z,9.43
2024-01-16T22:42:15.178Z,10.23
2024-01-16T22:44:45.843Z,11.97
2024-01-16T22:47:16.909Z,10.33
2024-01-16T22:49:45.040Z,10.73
2024-01-16T22:52:13.243Z,11.63
2024-01-16T22:54:41.902Z,8.03
2024-01-16T22:57:10.017Z,8.83
2024-01-16T22:59:38.113Z,11.30
2024-01-16T23:02:07.018Z,10.07
2024-01-16T23:04:39.170Z,10.47
2024-01-16T23:07:08.458Z,9.57
2024-01-16T23:09:36.614Z,10.00
2024-01-16T23:12:05.002Z,9.33
2024-01-16T23:14:34.229Z,9.57
2024-01-16T23:17:03.167Z,10.23
2024-01-16T23:19:31.963Z,13.50
2024-01-16T23:22:00.016Z,8.93
2024-01-16T23:24:29.227Z,9.37
2024-01-16T23:26:57.509Z,12.87
2024-01-16T23:29:25.901Z,11.97
2024-01-16T23:31:54.100Z,13.20
2024-01-16T23:34:22.189Z,10.67
2024-01-16T23:36:50.510Z,10.60
2024-01-16T23:39:19.357Z,9.27
2024-01-16T23:41:47.540Z,13.17
2024-01-16T23:44:15.708Z,12.73
2024-01-16T23:46:44.014Z,9.60
2024-01-16T23:49:12.092Z,11.57
2024-01-16T23:51:40.179Z,9.50
2024-01-16T23:54:08.311Z,10.13
2024-01-16T23:56:36.705Z,10.43
2024-01-16T23:59:04.771Z,8.30
